createdAt,value
2016-08-24T00:00:34.685Z,16.51
2016-08-24T00:01:36.125Z,16.43
2016-08-24T00:02:33.777Z,16.39
2016-08-24T00:03:34.353Z,16.46
2016-08-24T00:04:34.206Z,16.31
2016-08-24T00:05:34.619Z,16.49
2016-08-24T00:06:34.600Z,16.47
2016-08-24T00:07:35.002Z,16.42
2016-08-24T00:08:34.551Z,16.49
2016-08-24T00:09:33.821Z,16.41
2016-08-24T00:10:34.093Z,16.53
2016-08-24T00:11:34.806Z,16.46
2016-08-24T00:12:34.367Z,16.54
2016-08-24T00:13:36.270Z,16.68
2016-08-24T00:14:33.461Z,16.72
2016-08-24T00:15:34.053Z,16.65
2016-08-24T00:16:34.335Z,16.69
2016-08-24T00:17:34.917Z,16.68
2016-08-24T00:18:35.590Z,16.66
2016-08-24T00:19:35.573Z,16.69
2016-08-24T00:20:34.370Z,16.64
2016-08-24T00:21:35.327Z,16.66
2016-08-24T00:22:33.488Z,16.57
2016-08-24T00:23:34.419Z,16.54
2016-08-24T00:24:34.196Z,16.57
2016-08-24T00:25:35.849Z,16.43
2016-08-24T00:26:34.771Z,16.53
2016-08-24T00:27:35.294Z,16.42
2016-08-24T00:28:37.289Z,16.39
2016-08-24T00:29:34.709Z,16.43
2016-08-24T00:30:34.008Z,16.35
2016-08-24T00:31:34.593Z,16.35
2016-08-24T00:32:35.172Z,16.53
2016-08-24T00:33:36.189Z,16.43
2016-08-24T00:34:34.380Z,16.38
2016-08-24T00:35:35.628Z,16.35
2016-08-24T00:36:35.214Z,16.46
2016-08-24T00:37:35.563Z,16.41
2016-08-24T00:38:36.217Z,16.36
2016-08-24T00:39:34.296Z,16.47
2016-08-24T00:40:36.117Z,16.36
2016-08-24T00:41:34.655Z,16.33
2016-08-24T00:42:34.490Z,16.38
2016-08-24T00:43:34.755Z,16.33
2016-08-24T00:44:36.487Z,16.42
2016-08-24T00:45:37.326Z,16.39
2016-08-24T00:46:35.364Z,16.49
2016-08-24T00:47:37.632Z,16.47
2016-08-24T00:48:36.115Z,16.47
2016-08-24T00:49:34.565Z,16.47
2016-08-24T00:50:35.719Z,16.24
2016-08-24T00:51:35.404Z,16.08
2016-08-24T00:52:36.307Z,16.21
2016-08-24T00:53:35.711Z,16.12
2016-08-24T00:54:35.169Z,15.98
2016-08-24T00:55:36.257Z,16.08
2016-08-24T00:56:35.152Z,16.08
2016-08-24T00:57:35.402Z,16.13
2016-08-24T00:58:35.033Z,15.95
2016-08-24T00:59:35.619Z,16
2016-08-24T01:00:36.184Z,16.12
2016-08-24T01:01:34.969Z,16
2016-08-24T01:02:35.295Z,15.95
2016-08-24T01:03:35.874Z,16.04
2016-08-24T01:04:35.853Z,15.97
2016-08-24T01:05:36.621Z,15.86
2016-08-24T01:06:36.796Z,15.77
2016-08-24T01:07:36.572Z,15.76
2016-08-24T01:08:37.319Z,15.82
2016-08-24T01:09:35.599Z,15.97
2016-08-24T01:10:35.692Z,16
2016-08-24T01:11:35.106Z,16.02
2016-08-24T01:12:35.537Z,16.01
2016-08-24T01:13:36.351Z,15.98
2016-08-24T01:14:36.828Z,15.97
2016-08-24T01:15:35.953Z,16.08
2016-08-24T01:16:36.250Z,15.92
2016-08-24T01:17:34.871Z,15.94
2016-08-24T01:18:35.201Z,15.95
2016-08-24T01:19:36.951Z,15.98
2016-08-24T01:20:36.492Z,15.76
2016-08-24T01:21:36.393Z,15.72
2016-08-24T01:22:35.631Z,15.7
2016-08-24T01:23:37.299Z,15.75
2016-08-24T01:24:35.824Z,15.84
2016-08-24T01:25:36.786Z,15.72
2016-08-24T01:26:36.216Z,15.76
2016-08-24T01:27:35.807Z,15.9
2016-08-24T01:28:35.755Z,15.79
2016-08-24T01:29:37.388Z,15.76
2016-08-24T01:30:37.872Z,15.79
2016-08-24T01:31:36.700Z,15.61
2016-08-24T01:32:36.730Z,15.61
2016-08-24T01:33:36.700Z,15.62
2016-08-24T01:34:35.808Z,15.52
2016-08-24T01:35:36.419Z,15.51
2016-08-24T01:36:37.167Z,15.68
2016-08-24T01:37:36.832Z,15.76
2016-08-24T01:38:36.686Z,15.8
2016-08-24T01:39:37.268Z,15.83
2016-08-24T01:40:36.418Z,15.75
2016-08-24T01:41:36.851Z,15.68
2016-08-24T01:42:36.880Z,15.76
2016-08-24T01:43:36.604Z,15.79
2016-08-24T01:44:35.060Z,15.75
2016-08-24T01:45:37.202Z,15.91
2016-08-24T01:46:37.454Z,15.94
2016-08-24T01:47:37.568Z,15.75
2016-08-24T01:48:35.939Z,15.88
2016-08-24T01:49:37.054Z,15.94
2016-08-24T01:50:36.587Z,15.98
2016-08-24T01:51:36.716Z,16.05
2016-08-24T01:52:36.883Z,16.05
2016-08-24T01:53:36.801Z,16
2016-08-24T01:54:37.060Z,16
2016-08-24T01:55:36.579Z,16.04
2016-08-24T01:56:37.810Z,15.98
2016-08-24T01:57:37.015Z,16.02
2016-08-24T01:58:38.565Z,16
2016-08-24T01:59:36.895Z,15.94
2016-08-24T02:00:36.826Z,16.08
2016-08-24T02:01:36.509Z,16.01
2016-08-24T02:02:36.537Z,16.05
2016-08-24T02:03:37.468Z,16.01
2016-08-24T02:04:36.826Z,16.02
2016-08-24T02:05:37.817Z,16
2016-08-24T02:06:37.714Z,16.09
2016-08-24T02:07:37.594Z,16.08
2016-08-24T02:08:37.397Z,16.05
2016-08-24T02:09:36.996Z,15.97
2016-08-24T02:10:38.886Z,15.82
2016-08-24T02:11:38.551Z,15.75
2016-08-24T02:12:39.592Z,15.75
2016-08-24T02:13:38.004Z,15.8
2016-08-24T02:14:38.645Z,15.73
2016-08-24T02:15:36.803Z,15.88
2016-08-24T02:16:38.774Z,15.72
2016-08-24T02:17:39.232Z,15.84
2016-08-24T02:18:37.533Z,15.84
2016-08-24T02:19:36.339Z,15.9
2016-08-24T02:20:37.360Z,15.97
2016-08-24T02:21:37.426Z,15.8
2016-08-24T02:22:37.613Z,15.64
2016-08-24T02:23:37.567Z,15.51
2016-08-24T02:24:37.105Z,15.4
2016-08-24T02:25:37.839Z,15.35
2016-08-24T02:26:37.828Z,15.33
2016-08-24T02:27:40.163Z,15.35
2016-08-24T02:28:39.202Z,15.33
2016-08-24T02:29:37.970Z,15.44
2016-08-24T02:30:39.602Z,15.57
2016-08-24T02:31:38.141Z,15.52
2016-08-24T02:32:38.989Z,15.51
2016-08-24T02:33:37.098Z,15.36
2016-08-24T02:34:36.631Z,15.36
2016-08-24T02:35:38.689Z,15.39
2016-08-24T02:36:37.828Z,15.4
2016-08-24T02:37:36.849Z,15.33
2016-08-24T02:38:36.703Z,15.31
2016-08-24T02:39:37.331Z,15.29
2016-08-24T02:40:37.709Z,15.19
2016-08-24T02:41:37.939Z,15.42
2016-08-24T02:42:37.673Z,15.39
2016-08-24T02:43:37.501Z,15.37
2016-08-24T02:44:38.267Z,15.15
2016-08-24T02:45:39.434Z,15.1
2016-08-24T02:46:38.458Z,15.18
2016-08-24T02:47:39.199Z,15.28
2016-08-24T02:48:40.175Z,15.21
2016-08-24T02:49:37.302Z,15.28
2016-08-24T02:50:39.840Z,15.22
2016-08-24T02:51:39.969Z,15.21
2016-08-24T02:52:39.147Z,15.11
2016-08-24T02:53:38.571Z,15.03
2016-08-24T02:54:39.487Z,15.09
2016-08-24T02:55:38.124Z,15.24
2016-08-24T02:56:38.448Z,15.37
2016-08-24T02:57:39.188Z,15.21
2016-08-24T02:58:38.740Z,15.42
2016-08-24T02:59:38.572Z,15.36
2016-08-24T03:00:38.996Z,15.4
2016-08-24T03:01:39.800Z,15.47
2016-08-24T03:02:39.022Z,15.36
2016-08-24T03:03:39.576Z,15.35
2016-08-24T03:04:39.315Z,15.27
2016-08-24T03:05:39.865Z,15.36
2016-08-24T03:06:38.630Z,15.07
2016-08-24T03:07:38.808Z,15.09
2016-08-24T03:08:37.526Z,15.24
2016-08-24T03:09:37.384Z,15.27
2016-08-24T03:10:37.513Z,15.36
2016-08-24T03:11:38.391Z,15.44
2016-08-24T03:12:38.720Z,15.39
2016-08-24T03:13:38.635Z,15.44
2016-08-24T03:14:39.175Z,15.43
2016-08-24T03:15:37.801Z,15.37
2016-08-24T03:16:39.276Z,15.43
2016-08-24T03:17:40.786Z,15.42
2016-08-24T03:18:39.160Z,15.36
2016-08-24T03:19:38.471Z,15.36
2016-08-24T03:20:38.418Z,15.33
2016-08-24T03:21:39.827Z,15.11
2016-08-24T03:22:39.125Z,15.15
2016-08-24T03:23:39.209Z,15.18
2016-08-24T03:24:39.698Z,15.11
2016-08-24T03:25:38.813Z,15.21
2016-08-24T03:26:39.294Z,15.18
2016-08-24T03:27:38.358Z,15.04
2016-08-24T03:28:41.102Z,15.04
2016-08-24T03:29:38.115Z,15.14
2016-08-24T03:30:39.783Z,15.18
2016-08-24T03:31:38.793Z,15.1
2016-08-24T03:32:38.846Z,15.06
2016-08-24T03:33:39.183Z,15.1
2016-08-24T03:34:39.710Z,15.1
2016-08-24T03:35:38.678Z,15.03
2016-08-24T03:36:40.127Z,15.07
2016-08-24T03:37:40.193Z,14.99
2016-08-24T03:38:38.702Z,15.04
2016-08-24T03:39:38.900Z,15.11
2016-08-24T03:40:41.209Z,15.19
2016-08-24T03:41:39.478Z,15.22
2016-08-24T03:42:39.139Z,15.18
2016-08-24T03:43:39.908Z,15.33
2016-08-24T03:44:39.464Z,15.31
2016-08-24T03:45:39.707Z,15.27
2016-08-24T03:46:39.107Z,15.25
2016-08-24T03:47:41.579Z,15.36
2016-08-24T03:48:39.366Z,15.24
2016-08-24T03:49:38.930Z,15.27
2016-08-24T03:50:40.826Z,15.19
2016-08-24T03:51:41.559Z,15.15
2016-08-24T03:52:39.573Z,15.21
2016-08-24T03:53:40.431Z,15.24
2016-08-24T03:54:38.792Z,15.11
2016-08-24T03:55:41.349Z,14.91
2016-08-24T03:56:40.034Z,15.04
2016-08-24T03:57:40.466Z,15.06
2016-08-24T03:58:40.487Z,15.06
2016-08-24T03:59:41.134Z,15.14
2016-08-24T04:00:39.861Z,15.27
2016-08-24T04:01:39.453Z,15.24
2016-08-24T04:02:40.000Z,15.25
2016-08-24T04:03:41.485Z,15.27
2016-08-24T04:04:41.316Z,15.27
2016-08-24T04:05:39.226Z,15.29
2016-08-24T04:06:42.372Z,15.22
2016-08-24T04:07:40.311Z,15.24
2016-08-24T04:08:40.114Z,15.22
2016-08-24T04:09:40.692Z,15.25
2016-08-24T04:10:41.607Z,15.19
2016-08-24T04:11:40.954Z,15.22
2016-08-24T04:12:40.988Z,15.28
2016-08-24T04:13:40.390Z,15.29
2016-08-24T04:14:42.059Z,15.31
2016-08-24T04:15:40.858Z,15.25
2016-08-24T04:16:43.987Z,15.22
2016-08-24T04:17:41.277Z,15.25
2016-08-24T04:18:40.970Z,15.17
2016-08-24T04:19:42.261Z,15.1
2016-08-24T04:20:40.155Z,15.25
2016-08-24T04:21:40.759Z,15.25
2016-08-24T04:22:39.532Z,15.25
2016-08-24T04:23:41.522Z,15.36
2016-08-24T04:24:40.674Z,15.28
2016-08-24T04:25:43.538Z,15.17
2016-08-24T04:26:40.824Z,14.94
2016-08-24T04:27:40.113Z,14.82
2016-08-24T04:28:41.520Z,14.72
2016-08-24T04:29:40.921Z,14.65
2016-08-24T04:30:41.195Z,14.6
2016-08-24T04:31:41.324Z,14.72
2016-08-24T04:32:41.921Z,14.96
2016-08-24T04:33:40.607Z,14.88
2016-08-24T04:34:40.041Z,14.85
2016-08-24T04:35:40.147Z,15.03
2016-08-24T04:36:42.204Z,15.03
2016-08-24T04:37:42.157Z,14.96
2016-08-24T04:38:40.700Z,14.86
2016-08-24T04:39:40.200Z,15
2016-08-24T04:40:40.370Z,15.03
2016-08-24T04:41:41.349Z,15.02
2016-08-24T04:42:40.794Z,15.03
2016-08-24T04:43:41.465Z,14.99
2016-08-24T04:44:40.800Z,14.94
2016-08-24T04:45:40.286Z,15.07
2016-08-24T04:46:40.900Z,15.1
2016-08-24T04:47:40.949Z,15.17
2016-08-24T04:48:41.049Z,15.15
2016-08-24T04:49:41.228Z,14.82
2016-08-24T04:50:41.785Z,14.89
2016-08-24T04:51:42.667Z,15.06
2016-08-24T04:52:41.181Z,14.91
2016-08-24T04:53:42.001Z,14.78
2016-08-24T04:54:41.987Z,14.73
2016-08-24T04:55:41.931Z,14.63
2016-08-24T04:56:41.759Z,14.72
2016-08-24T04:57:41.291Z,14.97
2016-08-24T04:58:42.075Z,14.89
2016-08-24T04:59:40.897Z,14.85
2016-08-24T05:00:40.895Z,14.85
2016-08-24T05:01:42.428Z,14.84
2016-08-24T05:02:41.451Z,14.79
2016-08-24T05:03:41.870Z,14.79
2016-08-24T05:04:40.233Z,14.72
2016-08-24T05:05:42.883Z,14.85
2016-08-24T05:06:41.473Z,14.92
2016-08-24T05:07:42.810Z,14.89
2016-08-24T05:08:41.074Z,14.88
2016-08-24T05:09:40.647Z,14.79
2016-08-24T05:10:40.645Z,14.79
2016-08-24T05:11:41.581Z,14.7
2016-08-24T05:12:41.762Z,14.81
2016-08-24T05:13:43.563Z,14.73
2016-08-24T05:14:40.393Z,14.92
2016-08-24T05:15:41.371Z,14.86
2016-08-24T05:16:42.608Z,15.02
2016-08-24T05:17:40.987Z,15.07
2016-08-24T05:18:41.655Z,15.22
2016-08-24T05:19:41.406Z,15.19
2016-08-24T05:20:41.883Z,15.18
2016-08-24T05:21:41.430Z,15.21
2016-08-24T05:22:41.980Z,15.19
2016-08-24T05:23:42.910Z,15
2016-08-24T05:24:41.659Z,15.04
2016-08-24T05:25:43.008Z,15.02
2016-08-24T05:26:43.092Z,15.09
2016-08-24T05:27:41.834Z,15.07
2016-08-24T05:28:43.378Z,15.25
2016-08-24T05:29:41.863Z,15.29
2016-08-24T05:30:42.745Z,15.29
2016-08-24T05:31:41.740Z,15.31
2016-08-24T05:32:41.678Z,15.35
2016-08-24T05:33:42.763Z,15.25
2016-08-24T05:34:41.449Z,15.22
2016-08-24T05:35:43.474Z,15.22
2016-08-24T05:36:41.495Z,15.11
2016-08-24T05:37:44.417Z,15.14
2016-08-24T05:38:42.033Z,15.1
2016-08-24T05:39:41.406Z,15.22
2016-08-24T05:40:41.851Z,15.19
2016-08-24T05:41:41.825Z,15.29
2016-08-24T05:42:41.298Z,15.36
2016-08-24T05:43:43.008Z,15.46
2016-08-24T05:44:42.514Z,15.44
2016-08-24T05:45:43.603Z,15.62
2016-08-24T05:46:43.582Z,15.62
2016-08-24T05:47:42.355Z,15.76
2016-08-24T05:48:43.982Z,15.8
2016-08-24T05:49:42.842Z,15.92
2016-08-24T05:50:43.822Z,15.92
2016-08-24T05:51:42.791Z,15.97
2016-08-24T05:52:43.075Z,16.12
2016-08-24T05:53:42.343Z,16.1
2016-08-24T05:54:43.086Z,16.16
2016-08-24T05:55:42.377Z,16.16
2016-08-24T05:56:44.110Z,16.1
2016-08-24T05:57:42.626Z,16.41
2016-08-24T05:58:43.660Z,16.49
2016-08-24T05:59:44.038Z,16.66
2016-08-24T06:00:43.526Z,16.68
2016-08-24T06:01:43.084Z,16.86
2016-08-24T06:02:42.659Z,16.79
2016-08-24T06:03:43.574Z,16.84
2016-08-24T06:04:44.815Z,16.68
2016-08-24T06:05:43.459Z,16.84
2016-08-24T06:06:42.222Z,16.79
2016-08-24T06:07:43.482Z,16.93
2016-08-24T06:08:42.857Z,17.09
2016-08-24T06:09:43.075Z,17.19
2016-08-24T06:10:43.516Z,17.09
2016-08-24T06:11:42.744Z,17.29
2016-08-24T06:12:42.901Z,17.26
2016-08-24T06:13:43.831Z,17.41
2016-08-24T06:14:42.919Z,17.38
2016-08-24T06:15:41.941Z,17.54
2016-08-24T06:16:44.252Z,17.51
2016-08-24T06:17:42.154Z,17.63
2016-08-24T06:18:42.843Z,17.68
2016-08-24T06:19:44.326Z,17.57
2016-08-24T06:20:44.016Z,17.72
2016-08-24T06:21:42.468Z,17.74
2016-08-24T06:22:43.254Z,17.8
2016-08-24T06:23:43.174Z,17.89
2016-08-24T06:24:42.889Z,18.08
2016-08-24T06:25:44.443Z,18.15
2016-08-24T06:26:43.764Z,18.08
2016-08-24T06:27:44.640Z,18.23
2016-08-24T06:28:43.006Z,18.37
2016-08-24T06:29:44.669Z,18.23
2016-08-24T06:30:44.252Z,18.38
2016-08-24T06:31:44.126Z,18.34
2016-08-24T06:32:43.026Z,18.37
2016-08-24T06:33:43.728Z,18.62
2016-08-24T06:34:43.868Z,18.55
2016-08-24T06:35:44.176Z,18.8
2016-08-24T06:36:45.176Z,18.74
2016-08-24T06:37:43.779Z,18.8
2016-08-24T06:38:42.865Z,18.89
2016-08-24T06:39:44.619Z,18.88
2016-08-24T06:40:44.205Z,19.14
2016-08-24T06:41:43.017Z,19.14
2016-08-24T06:42:44.017Z,19.27
2016-08-24T06:43:44.061Z,19.26
2016-08-24T06:44:44.789Z,19.39
2016-08-24T06:45:44.116Z,19.51
2016-08-24T06:46:43.355Z,19.49
2016-08-24T06:47:43.039Z,19.63
2016-08-24T06:48:43.212Z,19.7
2016-08-24T06:49:43.832Z,19.67
2016-08-24T06:50:44.351Z,19.81
2016-08-24T06:51:43.738Z,19.94
2016-08-24T06:52:44.480Z,20.14
2016-08-24T06:53:44.590Z,20.04
2016-08-24T06:54:44.824Z,20.03
2016-08-24T06:55:45.928Z,20.21
2016-08-24T06:56:44.577Z,20.22
2016-08-24T06:57:45.422Z,20.25
2016-08-24T06:58:43.917Z,20.39
2016-08-24T06:59:43.191Z,20.44
2016-08-24T07:00:46.477Z,20.63
2016-08-24T07:01:44.676Z,20.63
2016-08-24T07:02:46.313Z,20.95
2016-08-24T07:03:44.195Z,20.84
2016-08-24T07:04:45.017Z,20.78
2016-08-24T07:05:43.131Z,21.05
2016-08-24T07:06:43.790Z,21
2016-08-24T07:07:44.902Z,21
2016-08-24T07:08:45.232Z,21.11
2016-08-24T07:09:43.881Z,21.02
2016-08-24T07:10:43.950Z,21.17
2016-08-24T07:11:45.332Z,21.42
2016-08-24T07:12:44.734Z,21.5
2016-08-24T07:13:45.380Z,21.72
2016-08-24T07:14:45.931Z,21.91
2016-08-24T07:15:45.239Z,21.54
2016-08-24T07:16:45.922Z,21.51
2016-08-24T07:17:45.947Z,22.1
2016-08-24T07:18:45.194Z,22.3
2016-08-24T07:19:45.654Z,22.07
2016-08-24T07:20:45.658Z,22.44
2016-08-24T07:21:45.049Z,22.51
2016-08-24T07:22:45.261Z,22.32
2016-08-24T07:23:48.185Z,22.04
2016-08-24T07:24:44.598Z,22.2
2016-08-24T07:25:45.205Z,22.28
2016-08-24T07:26:45.538Z,22.15
2016-08-24T07:27:43.955Z,22.3
2016-08-24T07:28:45.111Z,22.69
2016-08-24T07:29:45.599Z,22.83
2016-08-24T07:30:45.588Z,22.54
2016-08-24T07:31:47.852Z,22.36
2016-08-24T07:32:44.438Z,22.69
2016-08-24T07:33:44.616Z,23.13
2016-08-24T07:34:46.541Z,23.13
2016-08-24T07:35:44.593Z,23.32
2016-08-24T07:36:45.529Z,23.56
2016-08-24T07:37:45.132Z,23.1
2016-08-24T07:38:44.624Z,23.37
2016-08-24T07:39:46.429Z,23.77
2016-08-24T07:40:45.492Z,23.32
2016-08-24T07:41:44.551Z,23.65
2016-08-24T07:42:45.171Z,23.41
2016-08-24T07:43:44.423Z,23.37
2016-08-24T07:44:45.339Z,23.86
2016-08-24T07:45:45.517Z,23.69
2016-08-24T07:46:45.444Z,24.05
2016-08-24T07:47:45.278Z,23.81
2016-08-24T07:48:45.038Z,24.17
2016-08-24T07:49:46.619Z,23.96
2016-08-24T07:50:44.885Z,24.11
2016-08-24T07:51:45.643Z,24.16
2016-08-24T07:52:44.923Z,24.77
2016-08-24T07:53:47.433Z,24.65
2016-08-24T07:54:44.700Z,24.89
2016-08-24T07:55:46.969Z,24.96
2016-08-24T07:56:46.453Z,25.14
2016-08-24T07:57:45.310Z,25.11
2016-08-24T07:58:47.319Z,25.32
2016-08-24T07:59:45.105Z,25.73
2016-08-24T08:00:45.763Z,25.31
2016-08-24T08:01:45.622Z,25.83
2016-08-24T08:02:46.314Z,25.98
2016-08-24T08:03:45.246Z,25.7
2016-08-24T08:04:45.877Z,25.81
2016-08-24T08:05:46.237Z,26.06
2016-08-24T08:06:45.655Z,25.51
2016-08-24T08:07:46.180Z,25.16
2016-08-24T08:08:45.963Z,26.1
2016-08-24T08:09:47.292Z,25.8
2016-08-24T08:10:46.565Z,26.29
2016-08-24T08:11:45.812Z,25.21
2016-08-24T08:12:45.811Z,25.53
2016-08-24T08:13:46.555Z,24.88
2016-08-24T08:14:47.247Z,25.08
2016-08-24T08:15:47.792Z,25.78
2016-08-24T08:16:45.973Z,26.22
2016-08-24T08:17:46.227Z,25.72
2016-08-24T08:18:48.601Z,26.56
2016-08-24T08:19:47.043Z,26.83
2016-08-24T08:20:45.206Z,26.93
2016-08-24T08:21:46.924Z,26.4
2016-08-24T08:22:47.936Z,26.65
2016-08-24T08:23:47.090Z,26.96
2016-08-24T08:24:47.144Z,26.6
2016-08-24T08:25:49.580Z,26.85
2016-08-24T08:26:46.613Z,27.21
2016-08-24T08:27:46.749Z,26.51
2016-08-24T08:28:46.729Z,26.63
2016-08-24T08:29:46.754Z,27.44
2016-08-24T08:30:47.425Z,26.15
2016-08-24T08:31:48.083Z,26.05
2016-08-24T08:32:47.184Z,26.97
2016-08-24T08:33:46.816Z,27.32
2016-08-24T08:34:46.990Z,26.74
2016-08-24T08:35:46.785Z,26.99
2016-08-24T08:36:47.535Z,27.77
2016-08-24T08:37:47.874Z,28.05
2016-08-24T08:38:47.899Z,27.32
2016-08-24T08:39:46.310Z,27.17
2016-08-24T08:40:47.256Z,27.74
2016-08-24T08:41:46.708Z,28.12
2016-08-24T08:42:46.906Z,28.49
2016-08-24T08:43:47.311Z,29.16
2016-08-24T08:44:47.811Z,28.49
2016-08-24T08:45:46.766Z,28.01
2016-08-24T08:46:47.651Z,28.81
2016-08-24T08:47:48.474Z,29.1
2016-08-24T08:48:47.556Z,28.62
2016-08-24T08:49:47.475Z,29.04
2016-08-24T08:50:48.657Z,28.78
2016-08-24T08:51:47.023Z,29.2
2016-08-24T08:52:48.923Z,29.23
2016-08-24T08:53:49.055Z,28.3
2016-08-24T08:54:47.294Z,27.71
2016-08-24T08:55:47.789Z,27.37
2016-08-24T08:56:47.328Z,28.64
2016-08-24T08:57:48.177Z,29.17
2016-08-24T08:58:47.354Z,28.72
2016-08-24T08:59:47.552Z,29.04
2016-08-24T09:00:47.132Z,27.65
2016-08-24T09:01:46.973Z,28.39
2016-08-24T09:02:48.682Z,28.69
2016-08-24T09:03:48.409Z,28.15
2016-08-24T09:04:47.906Z,28.72
2016-08-24T09:05:48.610Z,28.32
2016-08-24T09:06:47.419Z,29.07
2016-08-24T09:07:48.118Z,29.87
2016-08-24T09:08:47.333Z,29.93
2016-08-24T09:09:48.191Z,30.34
2016-08-24T09:10:47.906Z,30.68
2016-08-24T09:11:48.699Z,29.94
2016-08-24T09:12:48.033Z,29.22
2016-08-24T09:13:47.611Z,29.16
2016-08-24T09:14:48.112Z,29.79
2016-08-24T09:15:49.594Z,30.53
2016-08-24T09:16:49.068Z,29.04
2016-08-24T09:17:48.580Z,29.39
2016-08-24T09:18:47.405Z,29.6
2016-08-24T09:19:49.076Z,28.78
2016-08-24T09:20:48.961Z,27.93
2016-08-24T09:21:47.997Z,28.05
2016-08-24T09:22:49.224Z,28.52
2016-08-24T09:23:48.907Z,30.09
2016-08-24T09:24:50.049Z,31.24
2016-08-24T09:25:49.321Z,30.37
2016-08-24T09:26:49.306Z,31.06
2016-08-24T09:27:48.069Z,30.21
2016-08-24T09:28:48.626Z,31.14
2016-08-24T09:29:48.092Z,30.84
2016-08-24T09:30:48.663Z,30.55
2016-08-24T09:31:48.447Z,31.59
2016-08-24T09:32:49.400Z,31.34
2016-08-24T09:33:48.881Z,30.68
2016-08-24T09:34:49.695Z,31
2016-08-24T09:35:49.442Z,31.31
2016-08-24T09:36:49.552Z,30.19
2016-08-24T09:37:50.150Z,30.99
2016-08-24T09:38:49.018Z,31.25
2016-08-24T09:39:49.956Z,30.73
2016-08-24T09:40:48.308Z,31
2016-08-24T09:41:49.012Z,30.12
2016-08-24T09:42:48.612Z,31.76
2016-08-24T09:43:50.212Z,31.47
2016-08-24T09:44:51.183Z,30.18
2016-08-24T09:45:49.750Z,31
2016-08-24T09:46:49.514Z,31.14
2016-08-24T09:47:49.145Z,32.09
2016-08-24T09:48:49.857Z,30.77
2016-08-24T09:49:53.026Z,29.42
2016-08-24T09:50:50.550Z,29.35
2016-08-24T09:51:51.344Z,31.03
2016-08-24T09:52:51.851Z,31.69
2016-08-24T09:53:49.561Z,31.25
2016-08-24T09:54:48.087Z,31.9
2016-08-24T09:55:49.925Z,30.35
2016-08-24T09:56:49.061Z,29.91
2016-08-24T09:57:50.117Z,30.8
2016-08-24T09:58:49.503Z,31.34
2016-08-24T09:59:50.060Z,32.03
2016-08-24T10:00:50.792Z,31.96
2016-08-24T10:01:51.351Z,31.46
2016-08-24T10:02:50.008Z,32.4
2016-08-24T10:03:49.587Z,31.49
2016-08-24T10:04:49.781Z,30.61
2016-08-24T10:05:49.292Z,30.57
2016-08-24T10:06:49.531Z,31.54
2016-08-24T10:07:49.521Z,31.34
2016-08-24T10:08:51.987Z,31.24
2016-08-24T10:09:51.416Z,33.19
2016-08-24T10:10:49.983Z,33.89
2016-08-24T10:11:50.532Z,33.73
2016-08-24T10:12:49.954Z,32.58
2016-08-24T10:13:50.991Z,33.09
2016-08-24T10:14:52.004Z,32.26
2016-08-24T10:15:49.948Z,32.78
2016-08-24T10:16:51.584Z,32.16
2016-08-24T10:17:51.388Z,32.27
2016-08-24T10:18:51.334Z,32.93
2016-08-24T10:19:51.744Z,31.85
2016-08-24T10:20:49.710Z,31.14
2016-08-24T10:21:52.011Z,31.54
2016-08-24T10:22:51.314Z,32.96
2016-08-24T10:23:50.765Z,33.01
2016-08-24T10:24:50.894Z,33.01
2016-08-24T10:25:50.004Z,32.87
2016-08-24T10:26:52.350Z,32.56
2016-08-24T10:27:50.464Z,33.05
2016-08-24T10:28:50.852Z,31.76
2016-08-24T10:29:51.400Z,32.9
2016-08-24T10:30:50.948Z,33.39
2016-08-24T10:31:50.157Z,33.2
2016-08-24T10:32:51.878Z,33.59
2016-08-24T10:33:50.138Z,32.85
2016-08-24T10:34:52.288Z,33.8
2016-08-24T10:35:50.508Z,33.08
2016-08-24T10:36:52.344Z,33.76
2016-08-24T10:37:53.049Z,32.87
2016-08-24T10:38:51.730Z,33.52
2016-08-24T10:39:52.394Z,32.86
2016-08-24T10:40:51.843Z,33.81
2016-08-24T10:41:50.830Z,33.96
2016-08-24T10:42:51.555Z,33.52
2016-08-24T10:43:53.229Z,33.64
2016-08-24T10:44:52.514Z,33.42
2016-08-24T10:45:51.155Z,34.01
2016-08-24T10:46:50.420Z,33.8
2016-08-24T10:47:52.734Z,33.83
2016-08-24T10:48:51.655Z,33
2016-08-24T10:49:52.484Z,34.29
2016-08-24T10:50:53.344Z,33.49
2016-08-24T10:51:51.340Z,33.02
2016-08-24T10:52:52.542Z,32.22
2016-08-24T10:53:51.916Z,32.27
2016-08-24T10:54:51.723Z,32.89
2016-08-24T10:55:53.779Z,33.46
2016-08-24T10:56:52.110Z,33.14
2016-08-24T10:57:54.375Z,33.84
2016-08-24T10:58:51.698Z,33.4
2016-08-24T10:59:52.506Z,32.22
2016-08-24T11:00:53.879Z,32.74
2016-08-24T11:01:53.366Z,33.43
2016-08-24T11:02:52.852Z,34.25
2016-08-24T11:03:52.098Z,33.39
2016-08-24T11:04:52.907Z,34.57
2016-08-24T11:05:52.095Z,33.52
2016-08-24T11:06:54.205Z,33.52
2016-08-24T11:07:51.291Z,34.45
2016-08-24T11:08:52.591Z,34.96
2016-08-24T11:09:52.898Z,35.1
2016-08-24T11:10:51.181Z,35.18
2016-08-24T11:11:52.694Z,34.67
2016-08-24T11:12:51.942Z,35.12
2016-08-24T11:13:52.145Z,34.99
2016-08-24T11:14:53.071Z,33.42
2016-08-24T11:15:54.342Z,34.96
2016-08-24T11:16:52.506Z,34.7
2016-08-24T11:17:53.055Z,33.96
2016-08-24T11:18:52.948Z,33.68
2016-08-24T11:19:52.753Z,34.73
2016-08-24T11:20:52.864Z,34.89
2016-08-24T11:21:53.851Z,35.88
2016-08-24T11:22:52.911Z,35.92
2016-08-24T11:23:52.400Z,35.8
2016-08-24T11:24:52.851Z,35.58
2016-08-24T11:25:52.197Z,35.02
2016-08-24T11:26:54.663Z,35.02
2016-08-24T11:27:53.783Z,35.44
2016-08-24T11:28:54.485Z,34.95
2016-08-24T11:29:53.797Z,35.33
2016-08-24T11:30:54.372Z,34.95
2016-08-24T11:31:52.473Z,35.1
2016-08-24T11:32:54.146Z,35.39
2016-08-24T11:33:54.860Z,35.61
2016-08-24T11:34:54.331Z,34.85
2016-08-24T11:35:52.889Z,35.07
2016-08-24T11:36:52.901Z,34.29
2016-08-24T11:37:52.584Z,34.4
2016-08-24T11:38:55.311Z,35
2016-08-24T11:39:54.799Z,34.66
2016-08-24T11:40:56.208Z,33.74
2016-08-24T11:41:54.726Z,33.24
2016-08-24T11:42:57.258Z,34.47
2016-08-24T11:43:54.554Z,35.8
2016-08-24T11:44:54.129Z,36.54
2016-08-24T11:45:52.598Z,36.54
2016-08-24T11:46:53.667Z,36.33
2016-08-24T11:47:55.210Z,36.88
2016-08-24T11:48:55.019Z,36.91
2016-08-24T11:49:54.114Z,35.58
2016-08-24T11:50:56.278Z,35.41
2016-08-24T11:51:53.286Z,35.49
2016-08-24T11:52:54.753Z,36
2016-08-24T11:53:54.762Z,36.42
2016-08-24T11:54:55.942Z,36.2
2016-08-24T11:55:54.095Z,36.28
2016-08-24T11:56:55.320Z,35.92
2016-08-24T11:57:54.315Z,36.05
2016-08-24T11:58:55.097Z,35.82
2016-08-24T11:59:53.967Z,36.08
2016-08-24T12:00:56.017Z,36.86
2016-08-24T12:01:55.085Z,36.88
2016-08-24T12:02:55.817Z,35.24
2016-08-24T12:03:55.480Z,35.42
2016-08-24T12:04:57.178Z,36.28
2016-08-24T12:05:56.332Z,36.17
2016-08-24T12:06:55.650Z,36.88
2016-08-24T12:07:55.488Z,35.92
2016-08-24T12:08:56.457Z,35.48
2016-08-24T12:09:54.438Z,36.51
2016-08-24T12:10:54.724Z,36.74
2016-08-24T12:11:55.547Z,36.8
2016-08-24T12:12:56.421Z,36.98
2016-08-24T12:13:56.635Z,36.09
2016-08-24T12:14:54.299Z,36.12
2016-08-24T12:15:54.339Z,36.86
2016-08-24T12:16:57.859Z,36.16
2016-08-24T12:17:55.425Z,34.9
2016-08-24T12:18:57.231Z,35.45
2016-08-24T12:19:56.040Z,36.43
2016-08-24T12:20:55.213Z,37.11
2016-08-24T12:21:55.362Z,37.25
2016-08-24T12:22:56.306Z,37.25
2016-08-24T12:23:55.667Z,37.21
2016-08-24T12:24:55.455Z,36.72
2016-08-24T12:25:55.850Z,36.57
2016-08-24T12:26:55.206Z,37.75
2016-08-24T12:27:54.656Z,37.18
2016-08-24T12:28:56.516Z,37.11
2016-08-24T12:29:57.135Z,37.06
2016-08-24T12:30:55.523Z,37.06
2016-08-24T12:31:57.672Z,36.84
2016-08-24T12:32:56.725Z,36.21
2016-08-24T12:33:57.496Z,37.18
2016-08-24T12:34:55.741Z,37.71
2016-08-24T12:35:57.010Z,38.08
2016-08-24T12:36:54.662Z,37.77
2016-08-24T12:37:55.940Z,37.53
2016-08-24T12:38:55.633Z,38.19
2016-08-24T12:39:56.737Z,38.43
2016-08-24T12:40:55.125Z,36.65
2016-08-24T12:41:56.322Z,37.45
2016-08-24T12:42:56.246Z,37.8
2016-08-24T12:43:57.100Z,37.8
2016-08-24T12:44:57.095Z,37.28
2016-08-24T12:45:55.852Z,36.88
2016-08-24T12:46:56.656Z,37.72
2016-08-24T12:47:58.259Z,36.84
2016-08-24T12:48:57.596Z,36.07
2016-08-24T12:49:56.301Z,37.08
2016-08-24T12:50:55.716Z,37.14
2016-08-24T12:51:56.723Z,36.39
2016-08-24T12:52:57.723Z,37.13
2016-08-24T12:53:57.144Z,37.01
2016-08-24T12:54:57.068Z,37.28
2016-08-24T12:55:58.257Z,36.8
2016-08-24T12:56:56.886Z,36.35